^^
Meteo Knjazevac Station Historical Data
Daily Summary for March 26, 2021 Units:  English    Metric   Both
Daily Weekly Monthly Yearly Custom
  High: Low: Average:
Temperature: 38.1 °F 35.1 °F 36.2 °F
Dew Point: 37.9 °F 34.8 °F 36 °F
Humidity: 99% 98% 99%
Wind Speed: 7mph 0mph 2.2mph
Wind Gust: 13mph - -
Wind- - ENE
Pressure: 30.06 in 29.61 in -
Precipitation: 0.07 in    
Historical Graphs
 
 
Tabular Data for March 26, 2021
Time Temperature Dew Point Pressure Wind Wind Speed Wind Gust Humidity Rainfall Rate (Hourly) solar Conditions
00:00 38.1 °F 37.9 °F 30.06 in NNE 2 mph 4 mph 99% 0.00 in 0 W/m2
00:10 38.1 °F 37.9 °F 30.06 in NNE 2 mph 3 mph 99% 0.00 in 0 W/m2
00:20 37.9 °F 37.7 °F 30.05 in Calm   2 mph 99% 0.00 in 0 W/m2
00:30 37.9 °F 37.6 °F 30.05 in Calm   3 mph 99% 0.00 in 0 W/m2
00:40 37.8 °F 37.5 °F 30.05 in WNW 1 mph 3 mph 99% 0.00 in 0 W/m2
00:50 37.3 °F 36.8 °F 30.04 in West 3 mph 7 mph 98% 0.00 in 0 W/m2
01:00 37.2 °F 37 °F 30.04 in Calm   5 mph 99% 0.00 in 0 W/m2
01:10 37.2 °F 37 °F 30.04 in Calm   4 mph 99% 0.00 in 0 W/m2
01:20 37.4 °F 37.1 °F 30.04 in North 1 mph 2 mph 99% 0.00 in 0 W/m2
01:30 37.1 °F 36.9 °F 30.04 in Calm   2 mph 99% 0.00 in 0 W/m2
01:40 37.2 °F 37 °F 30.04 in WNW 1 mph 3 mph 99% 0.00 in 0 W/m2
01:50 37.2 °F 37 °F 30.04 in North 1 mph 4 mph 99% 0.00 in 0 W/m2
02:00 37.4 °F 37.1 °F 30.03 in Calm   3 mph 99% 0.00 in 0 W/m2
02:10 37.5 °F 37.2 °F 30.02 in Calm   3 mph 99% 0.00 in 0 W/m2
02:20 37.4 °F 37.1 °F 30.02 in Calm   2 mph 99% 0.00 in 0 W/m2
02:30 37.4 °F 37.1 °F 30.01 in Calm   2 mph 99% 0.00 in 0 W/m2
02:40 37.4 °F 37.1 °F 30.00 in NNE 1 mph 3 mph 99% 0.00 in 0 W/m2
02:50 37.4 °F 37.1 °F 30.00 in NNE 2 mph 3 mph 99% 0.00 in 0 W/m2
03:00 37.4 °F 37.1 °F 30.00 in NE 1 mph 2 mph 99% 0.00 in 0 W/m2
03:10 37.3 °F 37 °F 30.00 in Calm   2 mph 99% 0.00 in 0 W/m2
03:20 37.2 °F 37 °F 29.99 in North 2 mph 4 mph 99% 0.00 in 0 W/m2
03:30 37.1 °F 36.9 °F 29.99 in NNE 2 mph 4 mph 99% 0.00 in 0 W/m2
03:40 36.9 °F 36.6 °F 29.99 in North 1 mph 4 mph 99% 0.00 in 0 W/m2
03:50 36.7 °F 36.4 °F 29.99 in Calm   3 mph 99% 0.00 in 0 W/m2
04:00 36.7 °F 36.4 °F 29.98 in NNE 1 mph 4 mph 99% 0.00 in 0 W/m2
04:10 36.5 °F 36.2 °F 29.97 in NNE 2 mph 5 mph 99% 0.00 in 0 W/m2
04:20 36.5 °F 36.2 °F 29.97 in North 1 mph 4 mph 99% 0.00 in 0 W/m2
04:30 36.3 °F 36.1 °F 29.97 in NE 2 mph 4 mph 99% 0.00 in 0 W/m2
04:40 36.2 °F 36 °F 29.97 in NNE 2 mph 4 mph 99% 0.00 in 0 W/m2
04:50 36.1 °F 35.9 °F 29.96 in NNE 1 mph 5 mph 99% 0.00 in 0 W/m2
05:00 36.1 °F 35.9 °F 29.96 in NNE 2 mph 5 mph 99% 0.00 in 0 W/m2
05:10 36.1 °F 35.9 °F 29.95 in NNE 2 mph 6 mph 99% 0.00 in 0 W/m2
05:20 36.1 °F 35.8 °F 29.95 in NNE 3 mph 6 mph 99% 0.00 in 0 W/m2
05:30 36 °F 35.7 °F 29.95 in Calm   5 mph 99% 0.00 in 0 W/m2
05:40 36 °F 35.7 °F 29.94 in NNE 1 mph 4 mph 99% 0.00 in 0 W/m2
05:50 36 °F 35.7 °F 29.93 in NNE 3 mph 7 mph 99% 0.00 in 0 W/m2
06:00 36 °F 35.7 °F 29.93 in NNE 3 mph 7 mph 99% 0.00 in 0 W/m2
06:10 35.9 °F 35.6 °F 29.93 in Calm   2 mph 99% 0.00 in 0 W/m2
06:20 36 °F 35.7 °F 29.93 in Calm   3 mph 99% 0.00 in 0 W/m2
06:30 36 °F 35.7 °F 29.93 in North 2 mph 5 mph 99% 0.00 in 0 W/m2
06:40 36 °F 35.7 °F 29.93 in NNE 3 mph 6 mph 99% 0.00 in 1 W/m2
06:50 35.9 °F 35.6 °F 29.92 in North 1 mph 6 mph 99% 0.00 in 2 W/m2
07:00 35.8 °F 35.5 °F 29.91 in North 3 mph 7 mph 99% 0.00 in 6 W/m2
07:10 35.8 °F 35.5 °F 29.91 in North 2 mph 8 mph 99% 0.00 in 9 W/m2
07:20 36 °F 35.7 °F 29.91 in Calm   7 mph 99% 0.00 in 10 W/m2
07:30 36 °F 35.7 °F 29.90 in NNW 1 mph 5 mph 99% 0.00 in 15 W/m2
07:40 36 °F 35.7 °F 29.90 in NE 1 mph 7 mph 99% 0.00 in 16 W/m2
07:50 36 °F 35.7 °F 29.89 in North 3 mph 9 mph 99% 0.00 in 36 W/m2
08:00 36 °F 35.7 °F 29.89 in West 2 mph 7 mph 99% 0.00 in 23 W/m2
08:10 36.1 °F 35.9 °F 29.90 in Calm   6 mph 99% 0.00 in 27 W/m2
08:20 36.3 °F 36.1 °F 29.89 in Calm   2 mph 99% 0.00 in 29 W/m2
08:30 36.3 °F 36.1 °F 29.88 in NNE 2 mph 5 mph 99% 0.00 in 21 W/m2
08:40 36.5 °F 36.2 °F 29.88 in North 3 mph 7 mph 99% 0.00 in 30 W/m2
08:50 36.6 °F 36.3 °F 29.88 in NNE 3 mph 7 mph 99% 0.00 in 32 W/m2
09:00 36.7 °F 36.4 °F 29.87 in North 1 mph 6 mph 99% 0.00 in 22 W/m2
09:10 36.9 °F 36.6 °F 29.86 in NNE 3 mph 7 mph 99% 0.00 in 36 W/m2
09:20 37 °F 36.8 °F 29.86 in NNE 5 mph 8 mph 99% 0.00 in 37 W/m2
09:30 37 °F 36.8 °F 29.86 in North 3 mph 12 mph 99% 0.00 in 31 W/m2
09:40 37 °F 36.8 °F 29.85 in North 1 mph 8 mph 99% 0.00 in 36 W/m2
09:50 37 °F 36.8 °F 29.85 in NNE 5 mph 8 mph 99% 0.00 in 46 W/m2
10:00 37 °F 36.8 °F 29.84 in NNE 5 mph 10 mph 99% 0.00 in 33 W/m2
10:10 36.9 °F 36.6 °F 29.84 in NNE 6 mph 8 mph 99% 0.00 in 32 W/m2
10:20 36.9 °F 36.6 °F 29.84 in North 6 mph 10 mph 99% 0.01 in 29 W/m2
10:30 36.9 °F 36.6 °F 29.83 in NNE 3 mph 9 mph 99% 0.00 in 29 W/m2
10:40 36.9 °F 36.6 °F 29.82 in NNE 3 mph 9 mph 99% 0.00 in 35 W/m2
10:50 36.9 °F 36.6 °F 29.81 in NNE 6 mph 9 mph 99% 0.00 in 43 W/m2
11:00 36.9 °F 36.6 °F 29.80 in NNE 2 mph 7 mph 99% 0.00 in 48 W/m2
11:10 37 °F 36.8 °F 29.79 in NNE 5 mph 8 mph 99% 0.00 in 52 W/m2
11:20 37 °F 36.8 °F 29.79 in NNE 1 mph 8 mph 99% 0.00 in 33 W/m2
11:30 37.1 °F 36.9 °F 29.79 in NNE 3 mph 7 mph 99% 0.00 in 50 W/m2
11:40 37.2 °F 37 °F 29.79 in North 5 mph 10 mph 99% 0.00 in 58 W/m2
11:50 37.2 °F 37 °F 29.79 in NNE 5 mph 9 mph 99% 0.00 in 63 W/m2
12:00 37.2 °F 37 °F 29.78 in NNE 2 mph 10 mph 99% 0.00 in 43 W/m2
12:10 37.2 °F 37 °F 29.78 in NNE 7 mph 10 mph 99% 0.00 in 66 W/m2
12:20 37.2 °F 37 °F 29.78 in NNE 7 mph 13 mph 99% 0.00 in 86 W/m2
12:30 37.2 °F 37 °F 29.78 in NNE 7 mph 12 mph 99% 0.01 in 58 W/m2
12:40 37 °F 36.8 °F 29.77 in NNE 5 mph 12 mph 99% 0.01 in 44 W/m2
12:50 37 °F 36.8 °F 29.77 in NNE 5 mph 8 mph 99% 0.01 in 27 W/m2
13:00 36.9 °F 36.6 °F 29.76 in NNE 6 mph 10 mph 99% 0.00 in 23 W/m2
13:10 36.7 °F 36.4 °F 29.76 in NNE 5 mph 12 mph 99% 0.00 in 30 W/m2
13:20 36.5 °F 36.2 °F 29.76 in NNE 7 mph 13 mph 99% 0.00 in 34 W/m2
13:30 36.3 °F 36.1 °F 29.75 in NNE 7 mph 11 mph 99% 0.00 in 36 W/m2
13:40 36.3 °F 36.1 °F 29.75 in NNE 5 mph 13 mph 99% 0.00 in 38 W/m2
13:50 36.3 °F 36.1 °F 29.74 in NNE 2 mph 8 mph 99% 0.00 in 47 W/m2
14:00 36.3 °F 36.1 °F 29.74 in NE 3 mph 6 mph 99% 0.00 in 44 W/m2
14:10 36.5 °F 36.2 °F 29.75 in North 2 mph 9 mph 99% 0.00 in 27 W/m2
14:20 36.4 °F 36.1 °F 29.74 in NNE 3 mph 6 mph 99% 0.00 in 24 W/m2
14:30 36.3 °F 36.1 °F 29.75 in NNE 5 mph 9 mph 99% 0.00 in 16 W/m2
14:40 36.3 °F 36 °F 29.75 in NNE 5 mph 9 mph 99% 0.00 in 18 W/m2
14:50 36.1 °F 35.9 °F 29.75 in NNE 5 mph 8 mph 99% 0.00 in 11 W/m2
15:00 36 °F 35.7 °F 29.74 in NNE 2 mph 8 mph 99% 0.00 in 19 W/m2
15:10 36 °F 35.7 °F 29.73 in NNE 3 mph 8 mph 99% 0.00 in 27 W/m2
15:20 35.8 °F 35.5 °F 29.73 in NNE 3 mph 7 mph 99% 0.00 in 20 W/m2
15:30 35.8 °F 35.5 °F 29.73 in North 2 mph 10 mph 99% 0.00 in 11 W/m2
15:40 35.6 °F 35.3 °F 29.73 in North 3 mph 6 mph 99% 0.00 in 4 W/m2
15:50 35.6 °F 35.3 °F 29.73 in North 5 mph 8 mph 99% 0.00 in 2 W/m2
16:00 35.6 °F 35.3 °F 29.72 in NNE 3 mph 5 mph 99% 0.00 in 0 W/m2
16:10 35.6 °F 35.3 °F 29.73 in NNE 2 mph 7 mph 99% 0.00 in 0 W/m2
16:20 35.6 °F 35.3 °F 29.73 in NNE 2 mph 7 mph 99% 0.00 in 0 W/m2
16:30 35.6 °F 35.3 °F 29.73 in NNE 2 mph 5 mph 99% 0.00 in 0 W/m2
16:40 35.4 °F 35.2 °F 29.73 in Calm   5 mph 99% 0.00 in 0 W/m2
16:50 35.4 °F 35.2 °F 29.73 in NNE 2 mph 6 mph 99% 0.00 in 0 W/m2
17:00 35.4 °F 35.2 °F 29.73 in Calm   5 mph 99% 0.00 in 0 W/m2
17:10 35.4 °F 35.2 °F 29.73 in North 3 mph 9 mph 99% 0.00 in 0 W/m2
17:20 35.4 °F 35.2 °F 29.74 in North 1 mph 7 mph 99% 0.00 in 0 W/m2
17:30 35.4 °F 35.2 °F 29.73 in North 2 mph 5 mph 99% 0.00 in 0 W/m2
17:40 35.4 °F 35.2 °F 29.73 in North 1 mph 4 mph 99% 0.00 in 0 W/m2
17:50 35.4 °F 35.2 °F 29.73 in Calm   5 mph 99% 0.00 in 0 W/m2
18:00 35.4 °F 35.2 °F 29.73 in NNE 2 mph 5 mph 99% 0.00 in 0 W/m2
18:10 35.4 °F 35.2 °F 29.73 in ESE 2 mph 5 mph 99% 0.00 in 0 W/m2
18:20 35.4 °F 35.2 °F 29.73 in NNE 1 mph 3 mph 99% 0.00 in 0 W/m2
18:30 35.6 °F 35.3 °F 29.73 in NNE 2 mph 3 mph 99% 0.00 in 0 W/m2
18:40 35.6 °F 35.3 °F 29.73 in NNE 3 mph 4 mph 99% 0.00 in 0 W/m2
18:50 35.4 °F 35.2 °F 29.73 in North 1 mph 3 mph 99% 0.00 in 0 W/m2
19:00 35.4 °F 35.2 °F 29.73 in Calm   2 mph 99% 0.00 in 0 W/m2
19:10 35.4 °F 35.2 °F 29.73 in North 1 mph 3 mph 99% 0.00 in 0 W/m2
19:20 35.4 °F 35.2 °F 29.73 in North 2 mph 5 mph 99% 0.00 in 0 W/m2
19:30 35.4 °F 35.2 °F 29.73 in NNE 2 mph 6 mph 99% 0.00 in 0 W/m2
19:40 35.4 °F 35.2 °F 29.72 in Calm   7 mph 99% 0.00 in 0 W/m2
19:50 35.4 °F 35.2 °F 29.73 in NNE 2 mph 6 mph 99% 0.00 in 0 W/m2
20:00 35.4 °F 35.2 °F 29.72 in NNE 2 mph 5 mph 99% 0.00 in 0 W/m2
20:10 35.4 °F 35.2 °F 29.72 in NNE 2 mph 6 mph 99% 0.00 in 0 W/m2
20:20 35.4 °F 35.2 °F 29.73 in North 2 mph 6 mph 99% 0.00 in 0 W/m2
20:30 35.2 °F 35 °F 29.73 in NNE 2 mph 6 mph 99% 0.00 in 0 W/m2
20:40 35.2 °F 35 °F 29.73 in NNE 2 mph 5 mph 99% 0.00 in 0 W/m2
20:50 35.2 °F 35 °F 29.73 in North 2 mph 5 mph 99% 0.00 in 0 W/m2
21:00 35.2 °F 35 °F 29.73 in Calm   4 mph 99% 0.00 in 0 W/m2
21:10 35.2 °F 35 °F 29.73 in NNE 1 mph 4 mph 99% 0.00 in 0 W/m2
21:20 35.2 °F 35 °F 29.73 in NE 1 mph 5 mph 99% 0.00 in 0 W/m2
21:30 35.1 °F 34.8 °F 29.73 in NE 2 mph 5 mph 99% 0.00 in 0 W/m2
21:40 35.1 °F 34.8 °F 29.73 in NNE 2 mph 3 mph 99% 0.00 in 0 W/m2
21:50 35.1 °F 34.8 °F 29.73 in North 2 mph 4 mph 99% 0.00 in 0 W/m2
22:00 35.1 °F 34.8 °F 29.73 in NNE 1 mph 5 mph 99% 0.00 in 0 W/m2
22:10 35.1 °F 34.8 °F 29.73 in NNE 2 mph 5 mph 99% 0.00 in 0 W/m2
22:20 35.1 °F 34.8 °F 29.73 in NNE 2 mph 7 mph 99% 0.00 in 0 W/m2
22:30 35.1 °F 34.8 °F 29.73 in North 2 mph 8 mph 99% 0.00 in 0 W/m2
22:40 35.1 °F 34.8 °F 29.73 in WNW 2 mph 4 mph 99% 0.00 in 0 W/m2
22:50 35.1 °F 34.8 °F 29.62 in SW 2 mph 5 mph 99% 0.00 in 0 W/m2
23:00 35.1 °F 34.8 °F 29.62 in SW 3 mph 5 mph 99% 0.00 in 0 W/m2
23:10 35.2 °F 35 °F 29.62 in WSW 2 mph 6 mph 99% 0.00 in 0 W/m2
23:20 35.2 °F 35 °F 29.62 in West 1 mph 4 mph 99% 0.00 in 0 W/m2
23:30 35.4 °F 35.1 °F 29.62 in SW 1 mph 3 mph 99% 0.00 in 0 W/m2
23:40 35.4 °F 35.2 °F 29.62 in SSW 2 mph 5 mph 99% 0.00 in 0 W/m2
23:50 35.6 °F 35.3 °F 29.61 in ESE 1 mph 5 mph 99% 0.00 in 0 W/m2
Knjazevac, Serbia
Compliments of Weather Underground - 2 mb